SLSB/SRJ METAR and TAF weather

Enter ICAO airport designator
Station Type Date Time Source
SLSB METAR 2022/05/21 15:00 UTC NOAA

SLSB 211500Z 33005KT 9999 SCT080 27/15 Q1018


Station Type Date Time Source
SLSB Decoded METAR 2022/05/21 15:00 UTC NOAA

San Borja, Bolivia (SLSB) 14-52S 066-52W
May 21, 2022 - 11:00 AM EDT / 2022.05.21 1500 UTC
Wind: from the NNW (330 degrees) at 6 MPH (5 KT):0
Visibility: greater than 7 mile(s):0
Sky conditions: partly cloudy
Temperature: 80 F (27 C)
Dew Point: 59 F (15 C)
Relative Humidity: 47%
Pressure (altimeter): 30.06 in. Hg (1018 hPa)
ob: SLSB 211500Z 33005KT 9999 SCT080 27/15 Q1018
cycle: 15

Station Type Date Time Source
SLSB TAF UTC NOAA

Error!

Example: see airport list